createdAt,value
2019-04-07T00:00:17.031Z,48.33
2019-04-07T00:02:08.796Z,48.13
2019-04-07T00:03:08.739Z,48.13
2019-04-07T00:05:10.308Z,48.04
2019-04-07T00:06:00.779Z,48.43
2019-04-07T00:07:53.062Z,48.04
2019-04-07T00:08:53.583Z,48.13
2019-04-07T00:10:45.294Z,48.23
2019-04-07T00:11:45.213Z,48.33
2019-04-07T00:13:36.933Z,48.23
2019-04-07T00:14:36.907Z,47.85
2019-04-07T00:16:28.746Z,48.43
2019-04-07T00:17:29.143Z,48.33
2019-04-07T00:19:20.930Z,48.23
2019-04-07T00:20:20.853Z,48.04
2019-04-07T00:22:13.376Z,48.13
2019-04-07T00:23:13.163Z,48.52
2019-04-07T00:25:05.297Z,48.43
2019-04-07T00:26:05.050Z,48.43
2019-04-07T00:27:57.497Z,48.33
2019-04-07T00:28:57.769Z,48.23
2019-04-07T00:30:49.251Z,48.23
2019-04-07T00:31:49.188Z,48.23
2019-04-07T00:33:41.385Z,48.43
2019-04-07T00:34:41.496Z,48.23
2019-04-07T00:36:33.196Z,48.33
2019-04-07T00:37:33.643Z,48.13
2019-04-07T00:39:25.878Z,48.13
2019-04-07T00:40:25.088Z,47.94
2019-04-07T00:42:17.205Z,47.94
2019-04-07T00:43:17.152Z,48.23
2019-04-07T00:45:09.018Z,48.23
2019-04-07T00:46:08.978Z,48.13
2019-04-07T00:48:01.397Z,47.75
2019-04-07T00:49:01.218Z,47.66
2019-04-07T00:50:53.773Z,47.75
2019-04-07T00:51:53.765Z,47.85
2019-04-07T00:53:45.438Z,47.66
2019-04-07T00:54:45.855Z,48.04
2019-04-07T00:56:37.438Z,47.94
2019-04-07T00:57:37.504Z,47.94
2019-04-07T00:59:29.726Z,47.94
2019-04-07T01:00:29.325Z,47.85
2019-04-07T01:02:21.399Z,48.04
2019-04-07T01:03:21.360Z,47.94
2019-04-07T01:05:13.841Z,47.85
2019-04-07T01:06:14.054Z,47.85
2019-04-07T01:08:05.289Z,47.94
2019-04-07T01:09:05.229Z,48.04
2019-04-07T01:10:57.297Z,47.94
2019-04-07T01:11:57.404Z,47.94
2019-04-07T01:13:49.146Z,47.75
2019-04-07T01:14:49.096Z,47.94
2019-04-07T01:16:40.991Z,47.94
2019-04-07T01:17:40.924Z,47.94
2019-04-07T01:19:33.298Z,48.04
2019-04-07T01:20:32.955Z,48.04
2019-04-07T01:22:25.380Z,48.13
2019-04-07T01:23:24.986Z,48.23
2019-04-07T01:25:17.057Z,48.13
2019-04-07T01:26:17.313Z,47.94
2019-04-07T01:28:09.109Z,47.94
2019-04-07T01:29:09.287Z,47.66
2019-04-07T01:31:01.138Z,47.94
2019-04-07T01:32:01.118Z,47.94
2019-04-07T01:33:53.292Z,48.04
2019-04-07T01:34:53.228Z,48.04
2019-04-07T01:36:45.483Z,47.94
2019-04-07T01:37:45.988Z,48.04
2019-04-07T01:39:37.345Z,48.02
2019-04-07T01:40:37.530Z,47.94
2019-04-07T01:42:29.392Z,47.94
2019-04-07T01:43:29.346Z,47.56
2019-04-07T01:45:21.497Z,47.94
2019-04-07T01:46:21.762Z,48.04
2019-04-07T01:48:13.933Z,47.85
2019-04-07T01:49:13.735Z,47.72
2019-04-07T01:51:05.735Z,47.85
2019-04-07T01:52:05.771Z,47.85
2019-04-07T01:53:57.456Z,48.04
2019-04-07T01:54:57.601Z,47.92
2019-04-07T01:56:49.455Z,47.75
2019-04-07T01:57:49.632Z,47.44
2019-04-07T01:59:41.792Z,48.11
2019-04-07T02:00:41.432Z,48.11
2019-04-07T02:02:34.055Z,48.11
2019-04-07T02:03:34.094Z,48.02
2019-04-07T02:05:25.557Z,48.21
2019-04-07T02:06:25.624Z,47.75
2019-04-07T02:08:17.602Z,47.56
2019-04-07T02:09:18.257Z,47.82
2019-04-07T02:11:10.280Z,47.56
2019-04-07T02:12:10.431Z,47.63
2019-04-07T02:14:01.762Z,47.63
2019-04-07T02:15:02.369Z,47.53
2019-04-07T02:16:54.334Z,48.04
2019-04-07T02:17:53.742Z,47.46
2019-04-07T02:19:46.024Z,47.92
2019-04-07T02:20:45.774Z,48.11
2019-04-07T02:22:37.746Z,47.92
2019-04-07T02:23:38.180Z,48.02
2019-04-07T02:25:30.101Z,47.82
2019-04-07T02:26:30.149Z,48.21
2019-04-07T02:28:21.880Z,47.82
2019-04-07T02:29:21.948Z,47.82
2019-04-07T02:38:47.090Z,47.63
2019-04-07T02:39:47.273Z,47.82
2019-04-07T02:41:40.099Z,47.63
2019-04-07T02:42:39.528Z,48.21
2019-04-07T02:44:31.603Z,47.92
2019-04-07T02:45:31.003Z,47.92
2019-04-07T02:47:23.087Z,47.92
2019-04-07T02:48:23.047Z,47.82
2019-04-07T02:50:15.539Z,47.92
2019-04-07T02:51:15.312Z,47.92
2019-04-07T02:53:07.580Z,47.92
2019-04-07T02:54:07.760Z,48.02
2019-04-07T02:55:59.237Z,47.92
2019-04-07T02:56:59.146Z,47.92
2019-04-07T02:58:51.449Z,47.92
2019-04-07T02:59:51.472Z,47.92
2019-04-07T03:01:43.448Z,48.02
2019-04-07T03:02:43.223Z,47.92
2019-04-07T03:04:35.311Z,48.21
2019-04-07T03:05:36.069Z,47.92
2019-04-07T03:07:27.133Z,48.02
2019-04-07T03:08:27.322Z,47.82
2019-04-07T03:10:19.153Z,47.92
2019-04-07T03:11:20.142Z,47.92
2019-04-07T03:13:11.194Z,47.92
2019-04-07T03:14:12.263Z,48.02
2019-04-07T03:16:04.316Z,47.92
2019-04-07T03:17:02.989Z,48.02
2019-04-07T03:18:55.166Z,47.92
2019-04-07T03:19:56.132Z,47.72
2019-04-07T03:21:48.166Z,47.92
2019-04-07T03:22:47.137Z,47.92
2019-04-07T03:24:39.032Z,47.92
2019-04-07T03:25:39.755Z,47.92
2019-04-07T03:27:31.375Z,47.72
2019-04-07T03:28:30.803Z,48.02
2019-04-07T03:30:25.170Z,47.92
2019-04-07T03:31:23.982Z,48.11
2019-04-07T03:33:16.467Z,48.02
2019-04-07T03:34:15.112Z,47.63
2019-04-07T03:36:10.415Z,47.72
2019-04-07T03:37:22.306Z,47.82
2019-04-07T03:38:59.077Z,47.72
2019-04-07T03:39:58.906Z,47.82
2019-04-07T03:41:51.239Z,47.63
2019-04-07T03:42:51.224Z,47.92
2019-04-07T03:44:42.858Z,47.82
2019-04-07T03:45:43.634Z,47.92
2019-04-07T03:47:35.420Z,47.82
2019-04-07T03:48:35.357Z,47.82
2019-04-07T03:50:26.831Z,47.72
2019-04-07T03:51:26.777Z,47.72
2019-04-07T03:53:20.030Z,47.92
2019-04-07T03:54:18.804Z,48.02
2019-04-07T03:56:10.697Z,47.82
2019-04-07T03:57:11.239Z,47.92
2019-04-07T03:59:03.421Z,47.72
2019-04-07T04:00:02.674Z,48.11
2019-04-07T04:01:54.759Z,47.92
2019-04-07T04:02:54.862Z,47.82
2019-04-07T04:04:46.907Z,47.92
2019-04-07T04:05:47.762Z,47.72
2019-04-07T04:07:40.059Z,47.82
2019-04-07T04:08:38.873Z,47.63
2019-04-07T04:10:31.064Z,47.82
2019-04-07T04:11:32.280Z,47.82
2019-04-07T04:13:23.197Z,48.11
2019-04-07T04:14:23.864Z,47.72
2019-04-07T04:16:15.133Z,47.82
2019-04-07T04:17:15.078Z,47.72
2019-04-07T04:19:07.168Z,47.72
2019-04-07T04:20:07.121Z,47.72
2019-04-07T04:21:59.186Z,48.11
2019-04-07T04:22:59.756Z,47.72
2019-04-07T04:24:51.531Z,47.92
2019-04-07T04:25:51.182Z,47.82
2019-04-07T04:27:43.105Z,47.92
2019-04-07T04:28:43.024Z,47.82
2019-04-07T04:30:36.003Z,47.82
2019-04-07T04:31:35.732Z,47.92
2019-04-07T04:33:27.509Z,47.82
2019-04-07T04:34:27.227Z,47.72
2019-04-07T04:36:19.173Z,47.71
2019-04-07T04:37:34.577Z,47.92
2019-04-07T04:39:12.689Z,47.63
2019-04-07T04:40:11.149Z,47.92
2019-04-07T04:42:03.988Z,47.63
2019-04-07T04:43:03.477Z,47.92
2019-04-07T04:44:55.266Z,47.72
2019-04-07T04:45:56.639Z,47.82
2019-04-07T04:47:48.240Z,48.02
2019-04-07T04:48:47.497Z,47.92
2019-04-07T04:50:39.350Z,47.63
2019-04-07T04:51:40.834Z,47.15
2019-04-07T04:53:31.155Z,47.25
2019-04-07T04:54:31.903Z,47.34
2019-04-07T04:56:24.068Z,47.05
2019-04-07T04:57:23.248Z,46.96
2019-04-07T04:59:15.221Z,47.34
2019-04-07T05:00:15.803Z,46.86
2019-04-07T05:02:07.784Z,46.96
2019-04-07T05:03:07.262Z,46.86
2019-04-07T05:04:59.407Z,46.28
2019-04-07T05:05:59.255Z,46.28
2019-04-07T05:07:59.146Z,46.79
2019-04-07T05:08:51.287Z,46.69
2019-04-07T05:10:43.958Z,46.41
2019-04-07T05:11:43.580Z,46.02
2019-04-07T05:13:35.779Z,46.21
2019-04-07T05:14:35.355Z,45.83
2019-04-07T05:16:27.608Z,46.02
2019-04-07T05:17:27.517Z,45.54
2019-04-07T05:19:19.368Z,45.92
2019-04-07T05:20:19.461Z,45.25
2019-04-07T05:22:11.343Z,45.08
2019-04-07T05:23:11.365Z,44.99
2019-04-07T05:25:03.934Z,45.18
2019-04-07T05:26:03.597Z,44.89
2019-04-07T05:27:55.863Z,44.70
2019-04-07T05:28:55.470Z,44.89
2019-04-07T05:30:48.045Z,44.79
2019-04-07T05:31:47.446Z,44.31
2019-04-07T05:33:39.957Z,44.24
2019-04-07T05:34:40.259Z,43.93
2019-04-07T05:36:31.471Z,44.14
2019-04-07T05:37:31.959Z,43.85
2019-04-07T05:39:24.118Z,44.34
2019-04-07T05:40:23.460Z,44.05
2019-04-07T05:42:15.764Z,44.05
2019-04-07T05:43:16.126Z,43.76
2019-04-07T05:45:08.212Z,43.47
2019-04-07T05:46:08.275Z,43.85
2019-04-07T05:48:00.090Z,43.66
2019-04-07T05:49:00.439Z,43.28
2019-04-07T05:50:51.652Z,43.08
2019-04-07T05:51:51.675Z,43.37
2019-04-07T05:53:46.337Z,42.72
2019-04-07T05:54:43.864Z,42.91
2019-04-07T05:56:35.907Z,42.72
2019-04-07T05:57:36.085Z,42.53
2019-04-07T05:59:27.754Z,42.72
2019-04-07T06:00:27.731Z,42.72
2019-04-07T06:02:19.874Z,42.72
2019-04-07T06:03:20.478Z,42.24
2019-04-07T06:05:12.080Z,42.24
2019-04-07T06:06:12.534Z,41.76
2019-04-07T06:08:20.891Z,41.86
2019-04-07T06:09:04.036Z,42.05
2019-04-07T06:10:59.995Z,41.97
2019-04-07T06:11:56.081Z,41.49
2019-04-07T06:13:48.711Z,41.78
2019-04-07T06:14:48.181Z,41.68
2019-04-07T06:16:40.668Z,41.39
2019-04-07T06:17:41.080Z,41.59
2019-04-07T06:19:32.594Z,41.13
2019-04-07T06:20:32.502Z,40.74
2019-04-07T06:22:24.773Z,41.03
2019-04-07T06:23:25.783Z,40.45
2019-04-07T06:25:16.631Z,40.45
2019-04-07T06:26:17.322Z,40.55
2019-04-07T06:28:08.695Z,39.99
2019-04-07T06:29:09.388Z,40.19
2019-04-07T06:31:01.356Z,39.70
2019-04-07T06:32:04.566Z,39.89
2019-04-07T06:33:54.898Z,39.89
2019-04-07T06:34:53.089Z,39.79
2019-04-07T06:36:44.981Z,40.09
2019-04-07T06:37:44.463Z,39.79
2019-04-07T06:39:37.329Z,39.51
2019-04-07T06:40:37.231Z,39.31
2019-04-07T06:42:31.566Z,39.24
2019-04-07T06:43:28.763Z,39.22
2019-04-07T06:45:21.126Z,39.14
2019-04-07T06:46:22.652Z,39.34
2019-04-07T06:48:13.332Z,39.04
2019-04-07T06:49:13.942Z,38.66
2019-04-07T06:51:04.953Z,38.95
2019-04-07T06:52:04.896Z,39.04
2019-04-07T06:53:56.972Z,38.68
2019-04-07T06:54:57.136Z,38.68
2019-04-07T06:56:49.046Z,38.20
2019-04-07T06:57:49.184Z,38.49
2019-04-07T06:59:45.653Z,38.68
2019-04-07T07:00:40.857Z,38.29
2019-04-07T07:02:33.047Z,38.20
2019-04-07T07:03:36.045Z,38.02
2019-04-07T07:05:25.077Z,38.10
2019-04-07T07:06:25.173Z,37.73
2019-04-07T07:08:19.409Z,37.35
2019-04-07T07:09:16.842Z,37.06
2019-04-07T07:11:09.772Z,37.35
2019-04-07T07:12:18.703Z,37.35
2019-04-07T07:14:00.943Z,37.35
2019-04-07T07:15:03.241Z,37.08
2019-04-07T07:16:52.991Z,36.69
2019-04-07T07:17:56.192Z,36.79
2019-04-07T07:19:45.017Z,36.50
2019-04-07T07:20:45.221Z,36.79
2019-04-07T07:22:40.259Z,36.42
2019-04-07T07:23:37.459Z,36.42
2019-04-07T07:25:31.284Z,35.94
2019-04-07T07:26:32.816Z,36.03
2019-04-07T07:28:21.267Z,35.94
2019-04-07T07:29:21.390Z,35.84
2019-04-07T07:31:13.304Z,35.64
2019-04-07T07:32:13.520Z,35.47
2019-04-07T07:34:05.401Z,35.37
2019-04-07T07:35:05.251Z,35.28
2019-04-07T07:36:58.717Z,35.18
2019-04-07T07:37:59.455Z,35.08
2019-04-07T07:39:49.379Z,35.10
2019-04-07T07:40:50.019Z,35.10
2019-04-07T07:42:42.034Z,34.62
2019-04-07T07:43:41.522Z,34.42
2019-04-07T07:45:33.435Z,34.23
2019-04-07T07:46:33.391Z,34.23
2019-04-07T07:48:27.973Z,34.05
2019-04-07T07:49:25.826Z,33.67
2019-04-07T07:51:17.515Z,33.67
2019-04-07T07:52:20.498Z,34.15
2019-04-07T07:54:09.970Z,33.39
2019-04-07T07:55:09.919Z,33.10
2019-04-07T07:57:02.362Z,33.10
2019-04-07T07:58:01.757Z,33.01
2019-04-07T07:59:53.610Z,33.10
2019-04-07T08:00:54.453Z,33.20
2019-04-07T08:02:49.118Z,33.10
2019-04-07T08:03:45.890Z,33.29
2019-04-07T08:05:37.679Z,32.73
2019-04-07T08:06:39.373Z,32.54
2019-04-07T08:08:29.827Z,32.82
2019-04-07T08:09:29.697Z,32.92
2019-04-07T08:11:21.752Z,32.73
2019-04-07T08:12:21.757Z,32.73
2019-04-07T08:14:16.624Z,32.36
2019-04-07T08:15:13.828Z,32.46
2019-04-07T08:17:05.920Z,32.17
2019-04-07T08:18:08.189Z,32.36
2019-04-07T08:19:58.802Z,32.26
2019-04-07T08:20:58.893Z,32.17
2019-04-07T08:22:50.417Z,31.97
2019-04-07T08:23:50.041Z,31.87
2019-04-07T08:25:42.534Z,32.07
2019-04-07T08:26:42.078Z,31.89
2019-04-07T08:28:35.917Z,31.89
2019-04-07T08:29:37.164Z,31.60
2019-04-07T08:31:26.177Z,31.60
2019-04-07T08:32:29.649Z,31.52
2019-04-07T08:34:18.941Z,31.42
2019-04-07T08:35:18.684Z,31.23
2019-04-07T08:37:14.175Z,31.42
2019-04-07T08:38:11.055Z,31.04
2019-04-07T08:40:07.093Z,31.05
2019-04-07T08:41:03.111Z,31.05
2019-04-07T08:42:54.541Z,30.66
2019-04-07T08:43:57.520Z,30.66
2019-04-07T08:45:47.116Z,30.47
2019-04-07T08:46:46.524Z,30.57
2019-04-07T08:48:38.830Z,30.27
2019-04-07T08:49:38.580Z,30.08
2019-04-07T08:51:32.450Z,30.27
2019-04-07T08:52:30.692Z,30.38
2019-04-07T08:54:23.139Z,29.90
2019-04-07T08:55:23.676Z,30.00
2019-04-07T08:57:15.271Z,29.91
2019-04-07T08:58:24.889Z,29.80
2019-04-07T09:00:06.949Z,30.11
2019-04-07T09:01:07.385Z,30.01
2019-04-07T09:03:03.689Z,29.52
2019-04-07T09:03:59.036Z,29.43
2019-04-07T09:05:51.466Z,29.24
2019-04-07T09:06:51.073Z,29.35
2019-04-07T09:08:43.973Z,28.86
2019-04-07T09:09:47.258Z,28.86
2019-04-07T09:11:35.276Z,28.96
2019-04-07T09:12:36.036Z,28.76
2019-04-07T09:14:27.330Z,28.97
2019-04-07T09:15:27.280Z,28.68
2019-04-07T09:17:30.985Z,28.49
2019-04-07T09:18:19.250Z,28.39
2019-04-07T09:20:12.094Z,28.58
2019-04-07T09:21:13.336Z,27.82
2019-04-07T09:23:03.327Z,28.19
2019-04-07T09:24:03.835Z,28.20
2019-04-07T09:25:56.190Z,28.02
2019-04-07T09:26:55.596Z,27.82
2019-04-07T09:28:47.679Z,27.62
2019-04-07T09:29:47.845Z,27.72
2019-04-07T09:31:39.892Z,27.93
2019-04-07T09:32:39.585Z,27.64
2019-04-07T09:34:32.350Z,27.64
2019-04-07T09:35:32.070Z,27.83
2019-04-07T09:37:25.163Z,27.34
2019-04-07T09:38:26.170Z,27.16
2019-04-07T09:40:17.348Z,27.16
2019-04-07T09:41:17.199Z,26.97
2019-04-07T09:43:07.778Z,26.78
2019-04-07T09:44:07.748Z,26.97
2019-04-07T09:45:59.914Z,26.87
2019-04-07T09:46:59.885Z,26.50
2019-04-07T09:48:52.861Z,26.69
2019-04-07T09:49:56.222Z,26.50
2019-04-07T09:51:43.995Z,26.21
2019-04-07T09:52:45.913Z,26.31
2019-04-07T09:54:36.011Z,26.21
2019-04-07T09:55:36.754Z,26.21
2019-04-07T09:57:28.060Z,26.02
2019-04-07T09:58:27.999Z,26.12
2019-04-07T10:00:23.017Z,25.93
2019-04-07T10:01:21.038Z,25.64
2019-04-07T10:03:14.046Z,25.25
2019-04-07T10:04:12.301Z,25.35
2019-04-07T10:06:04.166Z,24.98
2019-04-07T10:07:04.745Z,25.07
2019-04-07T10:08:56.175Z,24.99
2019-04-07T10:10:07.664Z,24.89
2019-04-07T10:11:49.384Z,24.69
2019-04-07T10:12:48.697Z,24.78
2019-04-07T10:14:40.506Z,24.60
2019-04-07T10:15:40.319Z,24.58
2019-04-07T10:17:32.944Z,24.60
2019-04-07T10:18:33.803Z,24.78
2019-04-07T10:20:25.825Z,24.68
2019-04-07T10:21:25.222Z,24.68
2019-04-07T10:23:16.588Z,24.40
2019-04-07T10:24:17.014Z,24.50
2019-04-07T10:26:08.483Z,24.40
2019-04-07T10:27:09.255Z,24.60
2019-04-07T10:29:00.659Z,24.11
2019-04-07T10:30:00.819Z,24.11
2019-04-07T10:31:52.950Z,24.40
2019-04-07T10:32:52.844Z,24.01
2019-04-07T10:34:45.048Z,24.21
2019-04-07T10:35:45.639Z,24.01
2019-04-07T10:37:37.845Z,23.82
2019-04-07T10:38:37.445Z,24.21
2019-04-07T10:40:29.079Z,24.21
2019-04-07T10:41:29.477Z,23.82
2019-04-07T10:43:21.196Z,23.82
2019-04-07T10:44:21.380Z,23.63
2019-04-07T10:46:13.598Z,23.44
2019-04-07T10:47:13.302Z,23.82
2019-04-07T10:49:05.820Z,23.72
2019-04-07T10:50:07.494Z,23.62
2019-04-07T10:51:58.016Z,23.54
2019-04-07T10:52:57.999Z,23.63
2019-04-07T10:54:49.444Z,23.44
2019-04-07T10:55:49.649Z,23.54
2019-04-07T10:57:41.503Z,23.54
2019-04-07T10:58:41.490Z,23.54
2019-04-07T11:00:33.505Z,23.24
2019-04-07T11:01:33.477Z,23.44
2019-04-07T11:03:25.667Z,23.24
2019-04-07T11:04:25.614Z,23.14
2019-04-07T11:06:18.115Z,23.54
2019-04-07T11:07:18.786Z,23.63
2019-04-07T11:09:09.733Z,23.34
2019-04-07T11:10:09.905Z,23.34
2019-04-07T11:12:01.928Z,23.34
2019-04-07T11:13:01.956Z,23.34
2019-04-07T11:14:54.715Z,23.44
2019-04-07T11:15:54.151Z,23.34
2019-04-07T11:17:45.946Z,23.24
2019-04-07T11:18:45.898Z,23.24
2019-04-07T11:20:38.420Z,23.34
2019-04-07T11:21:38.024Z,23.24
2019-04-07T11:23:30.109Z,23.24
2019-04-07T11:24:31.472Z,23.14
2019-04-07T11:26:23.006Z,23.54
2019-04-07T11:27:22.091Z,23.63
2019-04-07T11:29:14.466Z,23.44
2019-04-07T11:30:14.371Z,23.24
2019-04-07T11:32:06.530Z,23.24
2019-04-07T11:33:07.109Z,23.24
2019-04-07T11:34:58.444Z,23.63
2019-04-07T11:35:58.550Z,23.54
2019-04-07T11:37:50.267Z,23.43
2019-04-07T11:38:50.557Z,23.52
2019-04-07T11:40:48.571Z,23.52
2019-04-07T11:41:42.412Z,23.72
2019-04-07T11:43:34.343Z,23.72
2019-04-07T11:44:34.302Z,23.62
2019-04-07T11:46:27.141Z,23.71
2019-04-07T11:47:26.441Z,23.90
2019-04-07T11:49:19.477Z,23.80
2019-04-07T11:50:18.931Z,23.80
2019-04-07T11:52:11.415Z,23.71
2019-04-07T11:53:11.072Z,24.29
2019-04-07T11:55:02.598Z,23.90
2019-04-07T11:56:06.222Z,24.19
2019-04-07T11:58:06.432Z,24.28
2019-04-07T11:58:55.102Z,23.99
2019-04-07T12:00:47.359Z,24.57
2019-04-07T12:01:49.444Z,24.38
2019-04-07T12:03:38.764Z,24.38
2019-04-07T12:04:38.901Z,24.66
2019-04-07T12:06:30.729Z,24.76
2019-04-07T12:07:30.704Z,24.76
2019-04-07T12:09:23.817Z,24.66
2019-04-07T12:10:22.818Z,25.13
2019-04-07T12:12:15.116Z,25.14
2019-04-07T12:13:15.459Z,24.95
2019-04-07T12:15:07.468Z,24.66
2019-04-07T12:16:06.996Z,24.76
2019-04-07T12:17:59.177Z,24.56
2019-04-07T12:19:00.100Z,24.46
2019-04-07T12:20:51.863Z,24.66
2019-04-07T12:21:51.295Z,24.66
2019-04-07T12:23:43.340Z,24.76
2019-04-07T12:24:43.425Z,24.76
2019-04-07T12:26:39.511Z,24.66
2019-04-07T12:27:35.727Z,24.37
2019-04-07T12:29:27.248Z,24.93
2019-04-07T12:30:27.186Z,25.21
2019-04-07T12:32:20.206Z,25.41
2019-04-07T12:33:20.046Z,25.49
2019-04-07T12:35:11.885Z,25.59
2019-04-07T12:36:11.817Z,25.79
2019-04-07T12:38:04.052Z,25.89
2019-04-07T12:39:04.007Z,25.60
2019-04-07T12:41:11.001Z,25.69
2019-04-07T12:41:57.271Z,25.98
2019-04-07T12:43:49.546Z,25.98
2019-04-07T12:44:47.731Z,25.79
2019-04-07T12:46:39.708Z,25.89
2019-04-07T12:47:39.851Z,25.98
2019-04-07T12:49:33.320Z,25.79
2019-04-07T12:50:32.791Z,25.79
2019-04-07T12:52:27.252Z,25.59
2019-04-07T12:53:23.847Z,25.59
2019-04-07T12:55:17.962Z,25.79
2019-04-07T12:56:16.800Z,26.08
2019-04-07T12:58:10.815Z,26.17
2019-04-07T12:59:08.049Z,26.46
2019-04-07T13:01:07.342Z,26.83
2019-04-07T13:02:04.523Z,26.54
2019-04-07T13:03:52.536Z,26.34
2019-04-07T13:04:52.778Z,26.54
2019-04-07T13:06:45.421Z,26.64
2019-04-07T13:07:44.243Z,26.73
2019-04-07T13:09:36.610Z,27.21
2019-04-07T13:10:38.849Z,27.01
2019-04-07T13:12:28.972Z,27.03
2019-04-07T13:13:31.595Z,27.01
2019-04-07T13:15:20.538Z,26.72
2019-04-07T13:16:23.654Z,27.01
2019-04-07T13:18:13.418Z,27.31
2019-04-07T13:19:14.306Z,27.68
2019-04-07T13:21:04.449Z,27.78
2019-04-07T13:22:04.399Z,27.68
2019-04-07T13:23:56.485Z,27.87
2019-04-07T13:24:58.199Z,27.39
2019-04-07T13:26:48.855Z,27.78
2019-04-07T13:27:48.570Z,27.78
2019-04-07T13:29:41.273Z,27.67
2019-04-07T13:30:40.949Z,27.86
2019-04-07T13:32:40.964Z,28.15
2019-04-07T13:33:32.998Z,28.54
2019-04-07T13:35:25.027Z,28.23
2019-04-07T13:36:25.324Z,28.53
2019-04-07T13:38:17.566Z,28.63
2019-04-07T13:39:17.078Z,28.43
2019-04-07T13:41:09.421Z,28.33
2019-04-07T13:42:09.872Z,28.33
2019-04-07T13:44:04.644Z,28.63
2019-04-07T13:45:03.489Z,28.91
2019-04-07T13:46:53.297Z,28.70
2019-04-07T13:47:53.545Z,29.00
2019-04-07T13:49:45.824Z,28.53
2019-04-07T13:50:45.959Z,28.72
2019-04-07T13:52:39.678Z,28.33
2019-04-07T13:53:37.874Z,28.53
2019-04-07T13:55:29.537Z,27.94
2019-04-07T13:56:29.661Z,28.04
2019-04-07T13:58:21.867Z,28.15
2019-04-07T13:59:21.514Z,28.34
2019-04-07T14:01:13.771Z,28.53
2019-04-07T14:02:14.209Z,28.14
2019-04-07T14:04:05.690Z,28.53
2019-04-07T14:05:09.686Z,28.72
2019-04-07T14:06:57.731Z,28.43
2019-04-07T14:07:57.671Z,28.41
2019-04-07T14:09:50.693Z,28.51
2019-04-07T14:10:50.425Z,28.41
2019-04-07T14:12:42.251Z,28.61
2019-04-07T14:13:42.708Z,28.80
2019-04-07T14:15:34.752Z,29.00
2019-04-07T14:16:34.653Z,29.00
2019-04-07T14:18:26.691Z,29.00
2019-04-07T14:19:26.635Z,28.98
2019-04-07T14:21:18.209Z,28.98
2019-04-07T14:22:19.275Z,29.17
2019-04-07T14:24:10.312Z,29.57
2019-04-07T14:25:10.279Z,29.46
2019-04-07T14:27:03.252Z,29.37
2019-04-07T14:28:02.512Z,29.27
2019-04-07T14:29:54.856Z,29.08
2019-04-07T14:30:55.286Z,29.08
2019-04-07T14:32:48.420Z,29.26
2019-04-07T14:33:46.938Z,29.17
2019-04-07T14:35:39.064Z,29.06
2019-04-07T14:36:38.670Z,29.55
2019-04-07T14:38:31.217Z,29.74
2019-04-07T14:39:31.471Z,29.94
2019-04-07T14:41:22.875Z,29.73
2019-04-07T14:42:22.793Z,30.11
2019-04-07T14:44:15.129Z,30.60
2019-04-07T14:45:15.644Z,30.69
2019-04-07T14:47:07.694Z,30.78
2019-04-07T14:48:07.393Z,30.89
2019-04-07T14:49:59.050Z,30.98
2019-04-07T14:50:59.290Z,31.26
2019-04-07T14:52:51.198Z,30.88
2019-04-07T14:53:51.134Z,30.98
2019-04-07T14:55:43.219Z,30.88
2019-04-07T14:56:43.301Z,31.46
2019-04-07T14:58:35.813Z,31.07
2019-04-07T14:59:35.208Z,31.16
2019-04-07T15:01:27.178Z,30.88
2019-04-07T15:02:27.941Z,30.88
2019-04-07T15:04:19.396Z,30.78
2019-04-07T15:05:23.211Z,30.88
2019-04-07T15:07:11.445Z,30.98
2019-04-07T15:08:11.684Z,31.07
2019-04-07T15:10:03.401Z,31.16
2019-04-07T15:11:03.342Z,30.88
2019-04-07T15:12:55.709Z,30.98
2019-04-07T15:13:58.728Z,30.88
2019-04-07T15:15:50.133Z,30.98
2019-04-07T15:16:47.541Z,31.36
2019-04-07T15:18:40.032Z,31.56
2019-04-07T15:19:39.828Z,31.46
2019-04-07T15:21:31.926Z,31.63
2019-04-07T15:22:32.175Z,31.65
2019-04-07T15:24:23.976Z,31.63
2019-04-07T15:25:23.619Z,31.63
2019-04-07T15:27:16.746Z,31.73
2019-04-07T15:28:15.652Z,31.83
2019-04-07T15:30:08.589Z,31.73
2019-04-07T15:31:08.517Z,32.21
2019-04-07T15:33:02.417Z,32.21
2019-04-07T15:34:00.902Z,31.93
2019-04-07T15:35:52.379Z,32.21
2019-04-07T15:36:52.454Z,32.29
2019-04-07T15:38:44.126Z,32.20
2019-04-07T15:39:44.536Z,32.39
2019-04-07T15:41:36.210Z,32.29
2019-04-07T15:42:41.887Z,32.39
2019-04-07T15:44:27.710Z,32.20
2019-04-07T15:45:28.692Z,32.68
2019-04-07T15:47:21.133Z,32.59
2019-04-07T15:48:23.234Z,32.59
2019-04-07T15:50:11.839Z,32.68
2019-04-07T15:51:13.204Z,32.87
2019-04-07T15:53:03.917Z,32.59
2019-04-07T15:54:03.856Z,32.68
2019-04-07T15:56:02.022Z,32.39
2019-04-07T15:56:57.946Z,32.68
2019-04-07T15:58:48.395Z,32.68
2019-04-07T15:59:48.103Z,32.78
2019-04-07T16:01:40.401Z,32.68
2019-04-07T16:02:42.547Z,32.47
2019-04-07T16:04:32.023Z,32.86
2019-04-07T16:05:38.360Z,32.47
2019-04-07T16:07:23.960Z,33.15
2019-04-07T16:08:26.026Z,33.25
2019-04-07T16:10:18.710Z,32.47
2019-04-07T16:11:16.916Z,32.57
2019-04-07T16:13:08.732Z,33.15
2019-04-07T16:14:11.023Z,33.15
2019-04-07T16:16:00.163Z,32.96
2019-04-07T16:17:03.896Z,32.96
2019-04-07T16:18:52.820Z,32.76
2019-04-07T16:19:54.422Z,32.96
2019-04-07T16:21:44.337Z,33.54
2019-04-07T16:22:47.018Z,32.96
2019-04-07T16:24:37.128Z,32.65
2019-04-07T16:25:37.354Z,33.14
2019-04-07T16:27:28.336Z,33.05
2019-04-07T16:28:28.270Z,32.76
2019-04-07T16:30:20.449Z,32.96
2019-04-07T16:31:24.288Z,32.65
2019-04-07T16:33:12.287Z,33.04
2019-04-07T16:34:13.166Z,33.23
2019-04-07T16:36:04.477Z,33.42
2019-04-07T16:37:04.950Z,34.10
2019-04-07T16:38:56.590Z,34.00
2019-04-07T16:39:56.843Z,34.20
2019-04-07T16:41:49.326Z,33.62
2019-04-07T16:43:01.248Z,33.62
2019-04-07T16:44:43.878Z,33.72
2019-04-07T16:45:44.158Z,33.91
2019-04-07T16:47:34.669Z,33.81
2019-04-07T16:48:35.974Z,33.91
2019-04-07T16:50:24.970Z,33.81
2019-04-07T16:51:27.907Z,33.91
2019-04-07T16:53:16.495Z,33.89
2019-04-07T16:54:16.437Z,33.91
2019-04-07T16:56:08.469Z,33.91
2019-04-07T16:57:08.408Z,34.08
2019-04-07T16:59:02.301Z,34.18
2019-04-07T17:00:00.468Z,34.28
2019-04-07T17:01:52.952Z,34.28
2019-04-07T17:02:52.501Z,34.28
2019-04-07T17:04:45.113Z,34.56
2019-04-07T17:05:45.119Z,34.47
2019-04-07T17:07:36.378Z,34.66
2019-04-07T17:08:36.570Z,34.47
2019-04-07T17:10:30.990Z,35.14
2019-04-07T17:11:28.940Z,34.66
2019-04-07T17:13:31.410Z,34.86
2019-04-07T17:14:20.625Z,34.94
2019-04-07T17:16:13.345Z,34.94
2019-04-07T17:17:15.688Z,35.03
2019-04-07T17:19:05.175Z,35.32
2019-04-07T17:20:04.748Z,35.03
2019-04-07T17:21:56.354Z,35.13
2019-04-07T17:22:56.880Z,34.94
2019-04-07T17:24:48.391Z,35.32
2019-04-07T17:25:49.102Z,35.42
2019-04-07T17:27:42.383Z,35.52
2019-04-07T17:28:44.518Z,35.61
2019-04-07T17:30:32.650Z,35.52
2019-04-07T17:31:33.549Z,35.90
2019-04-07T17:33:24.704Z,35.88
2019-04-07T17:34:24.662Z,36.07
2019-04-07T17:36:20.182Z,35.88
2019-04-07T17:37:17.406Z,35.88
2019-04-07T17:39:09.692Z,35.98
2019-04-07T17:40:12.451Z,36.27
2019-04-07T17:42:01.491Z,36.55
2019-04-07T17:43:01.818Z,36.46
2019-04-07T17:44:52.834Z,36.55
2019-04-07T17:45:54.594Z,36.46
2019-04-07T17:47:45.222Z,36.36
2019-04-07T17:48:53.293Z,36.46
2019-04-07T17:50:36.953Z,36.75
2019-04-07T17:51:38.035Z,36.65
2019-04-07T17:53:29.710Z,36.55
2019-04-07T17:54:29.223Z,36.46
2019-04-07T17:56:22.167Z,36.75
2019-04-07T17:57:21.361Z,36.85
2019-04-07T17:59:15.868Z,36.65
2019-04-07T18:00:16.490Z,36.85
2019-04-07T18:02:05.251Z,36.94
2019-04-07T18:03:08.311Z,37.04
2019-04-07T18:04:57.288Z,36.85
2019-04-07T18:05:59.414Z,36.85
2019-04-07T18:07:49.883Z,37.04
2019-04-07T18:08:49.578Z,37.31
2019-04-07T18:10:41.430Z,37.31
2019-04-07T18:11:41.535Z,37.12
2019-04-07T18:13:42.023Z,37.31
2019-04-07T18:14:33.339Z,37.31
2019-04-07T18:16:25.634Z,37.31
2019-04-07T18:17:26.810Z,37.21
2019-04-07T18:19:17.255Z,37.50
2019-04-07T18:20:17.431Z,37.41
2019-04-07T18:22:09.312Z,37.12
2019-04-07T18:23:09.922Z,37.41
2019-04-07T18:25:03.593Z,37.31
2019-04-07T18:26:04.119Z,37.41
2019-04-07T18:27:54.578Z,37.31
2019-04-07T18:28:55.195Z,37.70
2019-04-07T18:30:45.607Z,37.79
2019-04-07T18:31:45.602Z,37.79
2019-04-07T18:33:37.910Z,37.60
2019-04-07T18:34:37.741Z,37.70